Date,TemperatureHighF,TemperatureAvgF,TemperatureLowF,DewpointHighF,DewpointAvgF,DewpointLowF,HumidityHigh,HumidityAvg,HumidityLow,PressureMaxIn,PressureMinIn,WindSpeedMaxMPH,WindSpeedAvgMPH,GustSpeedMaxMPH,PrecipitationSumIn
2012-1-7,57,47,39,37,34,30,74,60,46,28.87,28.62,14,6,29,0.00
2012-1-8,40,35,26,30,24,17,76,65,53,29.19,28.87,13,8,24,0.00
2012-1-9,39,30,21,25,17,13,84,61,34,29.19,28.88,12,4,24,0.00
2012-1-10,41,34,28,30,26,22,80,71,61,28.90,28.73,10,6,19,0.00
2012-1-11,43,36,29,33,28,24,90,73,56,29.00,28.85,9,3,17,0.00
2012-1-12,36,34,33,35,33,32,98,96,91,28.84,28.40,16,8,36,0.71
2012-1-13,45,32,25,45,28,14,99,85,60,28.60,28.18,27,12,40,0.13
2012-1-14,30,25,14,20,15,8,77,67,55,28.94,28.60,17,12,26,0.00
2012-1-15,15,10,3,8,-2,-7,77,59,38,29.40,28.94,20,12,29,0.00
2012-1-16,30,19,6,28,8,-2,96,66,36,29.44,29.03,20,7,20,0.00
2012-1-17,47,36,29,47,35,28,99,97,93,29.03,28.43,18,8,23,0.09
2012-1-18,47,39,31,45,29,19,93,69,54,28.79,28.43,26,17,45,0.01
2012-3-8,65,54,43,52,47,40,97,79,59,29.21,28.71,23,13,40,0.00
2012-3-9,58,37,30,50,27,17,92,67,36,29.11,28.70,19,11,35,0.04
2012-3-10,38,30,25,22,16,11,71,56,44,29.40,29.11,20,8,35,0.00
2012-3-11,57,42,29,35,24,16,72,51,33,29.39,29.21,14,8,27,0.00
2012-3-12,69,56,44,40,34,30,60,45,27,29.23,29.05,12,5,22,0.00
2012-3-13,69,58,49,58,50,39,97,77,55,29.05,28.84,13,6,24,0.00
2012-3-14,64,56,47,54,41,29,89,60,27,29.13,28.89,15,6,20,0.00
2012-3-15,47,41,39,39,38,36,95,88,65,29.24,29.13,2,0,7,0.00
2012-3-16,49,47,46,48,46,45,97,97,96,29.10,29.07,7,3,11,0.00
2012-3-17,60,50,42,48,45,41,98,85,62,29.27,29.10,7,3,15,0.00
2012-3-18,72,53,41,55,46,40,99,81,39,29.27,29.11,12,6,19,0.00
2012-3-19,77,63,49,59,53,48,96,74,39,29.18,29.08,10,2,14,0.00
2012-3-20,74,63,50,61,54,48,95,76,52,29.26,29.17,12,4,18,0.00
2012-3-21,70,61,56,61,58,55,100,91,72,29.31,29.20,9,4,17,0.01
2012-3-22,78,66,57,59,57,56,99,77,48,29.22,29.01,14,7,16,0.00
2012-3-23,73,65,60,58,49,38,84,59,34,29.08,28.97,10,4,13,0.00
2012-3-24,62,55,47,41,30,24,49,39,28,29.05,28.93,10,4,13,0.00
2012-3-25,50,44,40,44,37,24,89,77,41,28.94,28.65,5,2,7,0.06
2012-3-26,52,42,30,49,28,7,94,61,35,28.97,28.59,28,15,39,0.00
2012-3-27,44,33,23,12,6,2,45,33,20,29.13,28.97,20,12,24,0.00
2012-3-28,58,45,34,47,32,5,95,63,27,29.06,28.48,13,4,16,0.22
2012-3-29,53,45,38,47,37,28,84,74,65,28.88,28.52,18,12,27,0.00
2012-3-30,49,41,32,27,20,16,65,46,27,28.97,28.88,15,7,20,0.00
2012-3-31,44,36,33,36,33,18,98,90,35,28.93,28.80,8,2,13,0.33
2012-4-1,47,41,34,41,37,33,100,88,68,28.82,28.55,11,4,14,0.17
2012-4-2,40,39,37,39,36,33,96,88,75,28.68,28.52,16,10,20,0.00
2012-4-10,55,49,42,35,29,25,71,47,33,28.70,28.55,18,11,34,0.00
2012-4-11,52,44,39,36,32,30,77,64,45,28.81,28.69,13,7,28,0.00
2012-4-12,55,45,38,39,36,32,87,72,46,29.03,28.81,17,6,30,0.02
2012-4-13,60,50,38,35,32,28,82,53,30,29.10,29.00,13,7,22,0.00
2012-4-14,68,56,44,39,32,29,56,42,24,29.12,28.94,12,6,25,0.00
2012-4-15,73,64,57,59,53,39,80,67,47,28.97,28.88,15,8,27,0.00
2012-4-16,86,72,62,60,57,54,81,62,34,28.98,28.86,15,6,26,0.00
2012-4-17,72,66,57,59,46,34,78,51,32,29.10,28.86,18,10,25,0.00
2012-4-18,60,51,41,38,34,31,70,55,41,29.17,29.04,14,7,24,0.00
2012-4-19,71,56,46,47,40,34,82,58,29,29.04,28.92,12,4,22,0.00
2012-4-20,71,58,48,54,48,44,91,71,44,28.96,28.83,15,5,19,0.00
2012-4-21,72,62,54,59,56,48,98,82,59,28.83,28.64,15,7,25,0.04
2012-4-22,54,46,42,52,44,41,97,94,85,28.74,28.42,17,8,26,1.45
2012-4-23,53,46,41,52,45,40,99,94,86,28.41,28.18,16,9,23,0.96
2012-4-24,53,45,36,40,35,30,94,71,42,28.62,28.29,16,10,27,0.01
2012-4-25,56,46,39,40,34,31,77,63,39,28.84,28.62,18,6,21,0.00
2012-4-26,56,47,35,51,40,31,98,77,54,28.86,28.52,10,3,16,0.01
2012-4-27,52,44,37,52,34,25,99,68,47,29.00,28.49,24,14,31,0.01
2012-4-28,57,45,34,27,22,15,69,43,26,29.09,28.99,17,8,24,0.00
2012-4-29,56,46,34,27,20,10,48,36,27,29.15,28.97,18,9,28,0.00
2012-4-30,61,48,34,37,26,16,62,43,28,29.25,29.12,10,4,14,0.00
2012-5-1,53,49,45,52,47,35,99,92,63,29.13,28.93,8,4,13,0.44
2012-5-2,52,48,44,48,46,43,98,92,84,29.12,29.04,5,2,10,0.00
2012-5-3,52,50,48,52,50,47,99,98,94,29.09,29.02,8,3,12,0.05
2012-5-4,74,59,49,66,57,49,100,93,74,29.04,28.82,11,4,15,0.22
2012-5-5,66,59,55,61,58,54,100,96,81,29.00,28.86,5,1,10,0.02
2012-5-6,63,57,49,55,51,46,98,83,67,29.05,28.99,9,2,13,0.00
2012-5-7,69,57,46,55,48,44,94,75,57,29.07,29.01,14,4,18,0.03
2012-5-8,60,53,48,56,51,46,98,92,82,29.03,28.80,16,7,22,0.62
2012-5-9,67,60,55,65,59,55,100,99,88,28.80,28.54,9,2,17,0.13
2012-5-10,59,52,44,59,48,40,100,85,64,28.71,28.42,17,8,29,0.58
2012-5-11,65,53,43,42,37,30,89,58,29,29.03,28.71,15,8,24,0.00
2012-5-12,77,62,44,47,41,33,73,49,32,29.14,29.03,12,4,20,0.00
2012-5-13,79,68,58,57,51,46,79,56,35,29.12,29.02,12,4,18,0.00
2012-5-14,69,63,59,62,60,57,99,90,74,29.11,29.03,11,2,17,0.15
2012-5-15,63,60,57,61,59,57,100,98,85,29.09,28.91,7,2,15,0.52
2012-5-16,73,65,59,68,63,56,100,96,80,28.91,28.78,10,3,16,0.05
2012-5-17,67,57,47,57,43,40,90,62,39,29.04,28.88,12,7,21,0.00
2012-5-18,74,59,45,49,44,39,82,59,39,29.18,29.09,6,2,15,0.00
2012-5-19,80,65,48,54,47,42,84,56,34,29.14,29.05,6,1,15,0.00
2012-5-20,80,67,54,57,48,39,76,52,34,29.23,29.12,5,1,15,0.00
2012-5-21,64,60,56,64,54,39,100,82,50,29.19,28.98,5,2,13,0.34
2012-5-22,66,63,61,65,62,61,100,99,94,28.97,28.77,6,2,14,0.34
2012-5-23,74,66,60,68,64,60,100,93,79,29.02,28.82,6,2,12,0.00
2012-5-24,73,65,60,67,63,59,100,92,77,29.17,29.01,6,2,15,0.02
2012-5-25,63,60,59,63,60,59,100,100,97,29.18,29.14,2,0,4,0.07
2012-5-26,84,72,66,74,69,64,100,91,69,29.10,29.03,9,4,20,0.10
2012-5-27,81,71,60,64,60,53,93,69,49,29.13,28.95,7,3,16,0.01
2012-5-28,88,76,64,75,69,63,100,82,51,28.97,28.87,9,2,14,0.01
2012-5-29,90,75,66,77,71,65,99,86,59,28.89,28.68,14,5,28,0.52
2012-5-30,66,66,66,66,66,65,99,99,99,28.74,28.70,6,4,9,0.01
2012-5-31,74,66,58,60,54,50,93,68,50,28.91,28.71,11,4,19,0.00
2012-6-1,71,62,55,61,54,48,95,74,62,29.00,28.83,7,3,19,0.01
2012-6-2,68,59,54,64,58,53,100,94,81,28.83,28.64,8,3,22,1.29
2012-6-3,71,60,51,58,54,50,97,82,52,28.71,28.59,15,4,39,0.36
2012-6-4,57,52,48,52,49,46,98,91,73,28.77,28.59,9,3,16,0.01
2012-6-5,61,54,48,54,50,46,98,88,69,28.90,28.75,6,1,14,0.05
2012-6-6,68,58,48,57,52,48,99,83,57,28.94,28.88,9,2,16,0.01
2012-6-7,74,63,51,57,53,48,98,73,44,28.93,28.86,9,2,18,0.00
2012-6-8,78,65,52,62,56,51,95,74,45,28.89,28.78,15,4,20,0.01
2012-6-9,69,64,59,63,59,55,94,85,75,28.94,28.80,8,2,15,0.01
2012-6-10,81,69,60,68,63,57,97,81,62,29.17,28.95,6,1,11,0.00
2012-6-11,73,65,57,59,56,54,94,75,53,29.24,29.16,9,3,15,0.00
2012-6-12,67,63,59,65,62,58,100,96,90,29.15,28.88,7,3,17,0.25
2012-6-13,72,65,60,66,63,60,100,94,75,29.05,28.86,4,1,14,0.72
2012-6-14,75,66,58,63,58,55,96,78,58,29.21,29.05,8,2,18,0.00
2012-6-15,77,66,57,58,55,51,98,71,42,29.27,29.20,7,1,16,0.00
2012-6-16,78,66,55,61,56,51,95,73,45,29.30,29.18,5,1,11,0.00
2012-6-17,73,62,53,61,56,51,95,81,56,29.20,29.05,5,1,11,0.00
2012-6-18,72,61,52,59,55,50,97,82,61,29.11,29.05,6,2,12,0.00
2012-6-19,72,63,55,68,61,54,99,93,85,29.12,29.03,8,3,15,0.00
2012-6-20,92,80,64,79,73,64,99,82,60,29.04,28.91,11,3,18,0.00
2012-6-21,91,83,75,77,72,69,94,71,53,28.92,28.77,9,4,20,0.00
2012-6-22,89,79,67,75,72,66,97,81,56,28.80,28.74,7,1,17,0.38
2012-6-23,80,71,62,67,62,57,97,76,52,28.96,28.79,13,4,24,0.11
2012-6-24,79,70,59,63,58,52,92,69,41,28.98,28.86,8,3,14,0.00
2012-6-25,71,63,56,66,61,53,99,93,81,28.85,28.66,10,2,25,0.57
2012-6-26,66,59,51,58,53,49,94,81,69,28.70,28.62,13,7,22,0.00
2012-6-27,78,66,57,57,52,47,85,62,36,28.77,28.63,16,6,27,0.00
2012-6-28,83,72,60,65,59,51,85,65,47,28.78,28.69,10,4,21,0.00
2012-6-29,90,79,66,76,68,58,92,72,53,28.71,28.60,13,4,21,0.01
2012-6-30,88,78,68,68,64,58,81,63,45,28.77,28.67,12,4,18,0.00
2012-7-1,87,76,68,75,68,59,95,76,56,28.86,28.76,16,2,18,0.29
2012-7-2,81,73,64,67,62,59,89,70,50,28.90,28.84,8,3,14,0.00
2012-7-3,84,74,64,70,62,57,83,67,46,28.94,28.82,9,2,18,0.00
2012-7-4,86,76,68,75,71,66,97,84,63,28.82,28.71,8,3,17,0.07
2012-7-5,84,77,67,72,67,63,97,74,54,28.87,28.70,10,3,13,0.00
2012-7-6,86,76,63,72,66,61,95,74,49,28.93,28.84,8,2,12,0.00
2012-7-7,83,73,70,74,69,67,93,87,70,28.86,28.81,5,1,10,0.00
2012-7-8,85,76,67,70,65,59,94,70,49,28.88,28.80,8,2,19,0.00
2012-7-9,80,72,65,62,57,53,79,60,45,28.97,28.88,6,2,20,0.00
2012-7-10,82,72,63,63,56,50,83,58,41,29.07,28.96,6,1,15,0.00
2012-7-11,84,73,62,68,64,60,94,75,53,29.17,29.07,6,1,15,0.00
2012-7-12,86,75,65,69,65,62,98,74,50,29.18,29.10,8,3,20,0.00
2012-7-13,86,74,65,72,67,62,90,79,60,29.19,29.13,6,2,11,0.00
2012-7-14,87,77,70,70,67,63,93,73,48,29.18,29.09,11,4,15,0.01
2012-7-15,79,71,67,74,68,64,99,91,79,29.11,28.90,7,2,12,0.37
2012-7-16,86,77,70,75,71,69,99,84,61,28.89,28.78,11,4,20,0.00
2012-7-17,92,81,70,74,70,67,91,72,48,28.83,28.72,14,4,26,0.00
2012-7-18,94,81,74,77,73,67,97,78,56,28.89,28.75,22,3,23,0.02
2012-7-19,80,72,66,71,63,58,90,74,55,28.99,28.88,7,2,12,0.00
2012-7-20,68,62,60,63,60,58,98,93,84,29.05,28.96,5,1,9,0.31
2012-7-21,80,68,59,63,59,54,98,76,41,29.11,29.02,6,1,11,0.00
2012-7-22,82,70,59,66,62,57,97,77,57,29.13,29.07,9,3,15,0.00
2012-7-23,82,72,65,75,68,62,98,90,77,29.08,28.82,10,3,13,0.21
2012-7-24,86,75,65,74,68,56,99,80,62,28.77,28.61,11,4,23,0.20
2012-7-25,81,70,60,64,58,54,83,66,45,28.86,28.75,12,4,24,0.00
2012-7-26,83,73,64,75,68,61,97,83,74,28.78,28.62,11,4,24,0.16
2012-7-27,85,76,69,74,71,68,98,86,69,28.90,28.66,7,2,16,0.00
2012-7-28,78,70,66,72,68,65,100,95,80,28.94,28.90,16,1,34,1.17
2012-7-29,70,66,65,67,66,65,100,99,90,28.99,28.91,4,1,11,0.00
2012-7-30,79,70,64,69,66,64,100,88,68,29.11,29.06,7,2,12,0.01
2012-7-31,73,67,61,67,64,61,99,91,80,29.08,28.89,2,0,9,0.00
2012-8-1,82,70,64,72,68,64,100,93,65,28.90,28.84,9,2,22,0.44
2012-8-2,86,76,68,73,69,66,100,82,55,28.92,28.83,8,2,12,0.00
2012-8-3,88,78,70,77,72,68,99,82,55,29.11,28.92,9,3,16,0.01
2012-8-4,88,79,70,78,74,70,100,86,63,29.20,29.10,8,2,17,0.01
2012-8-5,86,77,74,78,75,71,99,93,75,29.19,28.98,12,4,22,0.03
2012-8-6,79,74,64,70,64,59,99,71,57,29.02,28.95,9,3,16,0.00
2012-8-7,82,71,60,67,61,56,91,74,49,29.00,28.95,6,1,12,0.00
2012-8-8,85,74,65,73,68,64,98,83,52,29.00,28.94,6,1,10,0.00
2012-8-9,86,77,71,75,72,67,100,85,62,28.96,28.88,10,2,17,0.00
2012-8-10,79,73,70,75,72,70,100,97,87,28.89,28.77,4,0,7,0.90
2012-8-11,83,75,70,77,73,70,100,93,74,28.91,28.82,9,2,16,0.01
2012-8-12,83,76,68,72,69,64,99,81,56,28.93,28.87,11,3,18,0.01
2012-8-13,81,71,62,68,64,61,96,80,55,28.98,28.92,8,2,13,0.00
2012-8-14,79,70,63,69,66,61,97,85,59,28.98,28.90,4,0,7,0.03
2012-8-15,80,71,63,72,68,63,99,91,71,28.91,28.84,11,1,14,0.09
2012-8-16,80,72,65,68,66,62,99,82,56,28.90,28.84,8,2,15,0.10
2012-8-17,83,72,60,72,66,59,97,81,60,28.88,28.78,14,3,21,0.05
2012-8-18,75,66,58,65,60,54,98,82,57,28.92,28.85,8,1,21,0.01
2012-8-19,72,64,55,61,56,51,94,76,58,28.97,28.90,4,1,10,0.01
2012-8-20,78,67,56,64,60,55,96,80,53,28.92,28.83,4,1,7,0.00
2012-8-21,77,69,62,63,60,57,97,76,53,29.08,28.90,8,2,16,0.00
2012-8-22,82,70,60,65,61,56,95,75,43,29.14,29.07,7,1,13,0.00
2012-8-23,83,72,62,68,64,58,97,76,43,29.14,29.09,8,2,14,0.00
2012-8-24,86,74,63,68,64,60,95,73,48,29.18,29.11,3,0,6,0.00
2012-8-25,83,72,64,69,64,59,97,78,56,29.28,29.18,4,0,10,0.00
2012-8-26,82,70,61,64,60,57,96,74,46,29.32,29.20,7,1,9,0.00
2012-8-27,81,71,62,72,67,60,99,90,71,29.20,28.93,10,4,16,0.39
2012-8-28,81,74,66,73,68,60,99,82,60,28.92,28.78,14,6,27,0.05
2012-8-29,73,64,56,60,54,49,94,71,46,29.00,28.89,8,2,14,0.05
2012-8-30,74,60,52,58,52,49,92,77,55,29.07,28.99,8,2,18,0.00
2012-9-12,77,66,53,59,56,49,96,72,46,29.32,29.28,3,0,11,0.00
2012-9-13,78,67,56,63,60,54,98,80,53,29.33,29.21,8,2,19,0.00
2012-9-14,78,67,56,65,62,54,98,84,61,29.22,29.02,5,2,18,0.06
2012-9-15,66,58,48,54,50,47,95,78,58,29.08,29.03,12,4,27,0.00
2012-9-16,68,58,49,53,50,46,91,76,53,29.08,28.99,11,3,21,0.00
2012-9-17,74,64,50,61,56,47,97,78,57,29.07,28.92,4,1,12,0.00
2012-9-18,72,69,63,70,68,62,99,97,91,28.91,28.64,18,10,41,1.50
2012-9-19,67,58,49,66,51,44,99,79,56,29.15,28.71,13,5,36,1.51
2012-9-20,64,56,47,56,50,42,93,80,67,29.19,29.08,6,2,13,0.00
2012-9-21,70,59,50,57,53,49,98,82,58,29.10,28.98,6,1,10,0.00
2012-9-22,68,61,53,67,58,52,99,92,77,28.98,28.77,14,2,17,0.51
2012-9-23,63,56,47,59,49,44,99,79,52,29.06,28.81,11,4,20,0.01
2012-9-24,61,52,43,48,44,41,94,76,52,29.10,29.04,12,2,18,0.01
2012-9-25,69,57,46,56,48,42,91,73,46,29.13,29.08,12,4,23,0.00
2012-9-26,66,62,58,63,60,56,97,92,85,29.09,28.98,10,4,20,0.02
2012-9-27,69,64,60,62,58,52,98,83,62,29.13,29.00,6,2,13,0.02
2012-9-28,55,53,52,54,53,52,99,99,98,29.12,28.88,5,2,13,0.45
2012-9-29,58,55,52,56,54,52,99,97,92,28.90,28.81,1,0,7,0.13
2012-9-30,64,54,48,56,51,47,99,88,62,28.81,28.71,11,4,20,0.04
2012-10-1,65,57,48,55,52,47,95,84,68,28.98,28.74,14,5,28,0.01
2012-10-2,63,58,54,59,57,53,100,96,83,29.01,28.97,4,0,14,0.01
2012-10-3,70,61,58,70,61,58,100,100,99,29.06,28.97,3,0,5,0.41
2012-10-10,60,51,42,58,48,38,100,91,78,28.99,28.74,15,5,31,0.17
2012-10-11,56,48,41,39,37,35,87,69,47,29.09,28.97,14,6,29,0.00
2012-10-12,50,41,28,41,31,24,89,69,46,29.38,28.98,16,6,31,0.02
2012-10-13,50,44,29,45,33,25,90,65,39,29.42,29.10,11,4,23,0.00
2012-10-14,65,58,48,59,54,46,98,87,70,29.10,28.76,15,6,25,0.01
2012-10-15,68,60,46,62,57,38,98,90,74,28.75,28.59,13,6,28,0.17
2012-10-16,52,48,38,41,38,35,87,71,62,28.86,28.64,22,10,41,0.00
2012-10-17,63,48,35,43,39,33,100,74,42,28.95,28.84,5,0,9,0.00
2012-10-18,63,52,40,53,48,40,98,85,61,29.02,28.94,8,2,15,0.00
2012-10-19,65,61,55,65,61,54,100,99,97,28.95,28.67,11,5,18,1.48
2012-10-20,69,62,51,64,55,42,100,79,46,28.75,28.61,14,6,22,1.48
2012-10-21,60,53,45,46,42,41,87,67,50,28.92,28.76,15,7,23,0.00
2012-10-22,63,54,44,47,43,39,92,68,50,29.01,28.91,16,5,25,0.00
2012-10-23,62,54,51,52,47,41,98,79,54,29.07,28.99,7,2,10,0.25
2012-10-24,53,51,49,51,47,42,98,85,72,29.15,29.06,3,0,6,0.28
2012-10-25,58,54,50,51,47,45,88,79,61,29.24,29.15,5,0,6,0.00
2012-10-26,61,57,54,57,54,51,94,90,87,29.19,29.08,8,1,14,0.00
2012-10-27,62,58,56,56,55,53,94,89,79,29.07,28.91,6,0,8,0.00
2012-10-28,55,52,49,52,47,41,93,83,62,28.90,28.65,13,7,26,0.00
2012-10-29,63,55,49,62,53,47,99,94,82,28.65,27.85,28,15,46,0.77
2012-10-30,59,56,52,54,51,49,96,86,75,28.47,28.15,18,8,32,0.01
2012-10-31,52,46,43,50,42,38,96,87,74,28.51,28.41,10,3,14,0.05
2012-11-1,49,44,40,42,40,38,92,84,73,28.53,28.47,11,4,17,0.00
2012-11-2,48,43,40,42,38,34,92,82,68,28.63,28.51,13,6,17,0.01
2012-11-3,45,41,37,35,33,31,84,74,64,28.81,28.62,21,12,29,0.01
2012-11-4,46,39,35,35,32,29,83,75,63,28.91,28.80,15,9,22,0.00
2012-11-5,37,34,28,29,25,20,81,70,60,29.07,28.88,14,8,21,0.00
2012-11-6,42,32,24,22,20,18,80,62,42,29.14,29.03,6,1,6,0.00
2012-11-7,34,31,28,29,26,19,96,82,65,29.04,28.68,18,12,30,0.00
2012-11-8,38,35,30,31,29,26,95,79,72,28.78,28.64,23,16,33,0.00
2012-11-9,49,40,32,36,28,21,78,61,34,29.08,28.78,20,12,33,0.00
2012-11-10,54,47,40,42,39,36,84,75,63,29.35,29.08,9,3,13,0.00
2012-11-11,62,48,41,50,44,39,96,85,66,29.42,29.33,12,2,21,0.00
2012-11-25,36,33,31,26,24,19,76,68,57,28.91,28.72,15,9,31,0.00
2012-11-26,42,36,29,29,25,22,83,65,53,29.21,28.92,14,4,26,0.00
2012-11-27,33,32,30,32,31,28,97,95,86,29.21,29.08,3,1,7,0.10
2012-11-28,36,30,25,29,25,22,93,81,69,29.18,29.05,10,4,23,0.05
2012-11-29,40,35,28,27,26,23,83,70,58,29.28,29.11,12,6,24,0.00
2012-11-30,37,30,25,30,22,15,88,75,56,29.45,29.29,5,3,13,0.00
2012-12-1,32,30,26,32,28,23,98,95,88,29.46,29.36,5,2,12,0.01
2012-12-2,46,41,32,46,40,32,99,98,94,29.35,29.01,11,3,18,0.05
2012-12-3,51,46,45,47,45,44,98,97,83,29.12,29.00,9,2,10,0.05